createdAt,value
2017-05-18T00:00:14.161Z,0
2017-05-18T00:01:14.172Z,0
2017-05-18T00:02:14.145Z,0
2017-05-18T00:03:13.842Z,0
2017-05-18T00:04:14.142Z,0
2017-05-18T00:05:14.148Z,0
2017-05-18T00:06:14.137Z,0
2017-05-18T00:07:14.133Z,0
2017-05-18T00:08:14.126Z,0
2017-05-18T00:09:14.125Z,0
2017-05-18T00:10:13.813Z,0
2017-05-18T00:11:13.811Z,0
2017-05-18T00:12:13.807Z,0
2017-05-18T00:13:13.809Z,0
2017-05-18T00:14:13.800Z,0
2017-05-18T00:15:14.099Z,0
2017-05-18T00:16:13.491Z,0
2017-05-18T00:17:14.087Z,0
2017-05-18T00:18:13.783Z,0
2017-05-18T00:19:14.088Z,0
2017-05-18T00:20:14.075Z,0
2017-05-18T00:21:14.071Z,0
2017-05-18T00:22:14.075Z,0
2017-05-18T00:23:13.831Z,0
2017-05-18T00:24:14.060Z,0
2017-05-18T00:25:14.055Z,0
2017-05-18T00:26:14.057Z,0
2017-05-18T00:27:14.046Z,0
2017-05-18T00:28:14.038Z,0
2017-05-18T00:29:14.044Z,0
2017-05-18T00:30:13.737Z,0
2017-05-18T00:31:14.028Z,0
2017-05-18T00:32:14.037Z,0
2017-05-18T00:33:14.024Z,0
2017-05-18T00:34:13.712Z,0
2017-05-18T00:35:14.010Z,0
2017-05-18T00:36:14.009Z,0
2017-05-18T00:37:14.006Z,0
2017-05-18T00:38:14.042Z,0
2017-05-18T00:39:14.012Z,0
2017-05-18T00:40:13.999Z,0
2017-05-18T00:41:13.988Z,0
2017-05-18T00:42:13.985Z,0
2017-05-18T00:43:13.691Z,0
2017-05-18T00:44:13.976Z,0
2017-05-18T00:45:13.968Z,0
2017-05-18T00:46:13.963Z,0
2017-05-18T00:47:13.657Z,0
2017-05-18T00:48:13.955Z,0
2017-05-18T00:49:13.957Z,0
2017-05-18T00:50:13.644Z,0
2017-05-18T00:51:13.662Z,0
2017-05-18T00:52:13.939Z,0
2017-05-18T00:53:13.933Z,0
2017-05-18T00:54:13.937Z,0
2017-05-18T00:55:13.628Z,0
2017-05-18T00:56:13.930Z,0
2017-05-18T00:57:13.915Z,0
2017-05-18T00:58:13.917Z,0
2017-05-18T00:59:13.605Z,0
2017-05-18T01:00:13.604Z,0
2017-05-18T01:01:13.898Z,0
2017-05-18T01:02:13.894Z,0
2017-05-18T01:03:13.891Z,0
2017-05-18T01:04:13.884Z,0
2017-05-18T01:05:13.883Z,0
2017-05-18T01:06:13.879Z,0
2017-05-18T01:07:13.874Z,0
2017-05-18T01:08:13.870Z,0
2017-05-18T01:09:13.870Z,0
2017-05-18T01:10:13.862Z,0
2017-05-18T01:11:13.557Z,0
2017-05-18T01:12:13.852Z,0
2017-05-18T01:13:13.843Z,0
2017-05-18T01:14:13.847Z,0
2017-05-18T01:15:13.847Z,0
2017-05-18T01:16:13.836Z,0
2017-05-18T01:17:13.830Z,0
2017-05-18T01:18:13.827Z,0
2017-05-18T01:19:13.821Z,0
2017-05-18T01:20:13.859Z,0
2017-05-18T01:21:13.815Z,0
2017-05-18T01:22:13.198Z,0
2017-05-18T01:23:13.799Z,0
2017-05-18T01:24:13.798Z,0
2017-05-18T01:25:13.817Z,0
2017-05-18T01:26:13.784Z,0
2017-05-18T01:27:13.791Z,0
2017-05-18T01:28:13.814Z,0
2017-05-18T01:29:13.775Z,0
2017-05-18T01:30:13.765Z,0
2017-05-18T01:31:13.769Z,0
2017-05-18T01:32:13.461Z,0
2017-05-18T01:33:13.753Z,0
2017-05-18T01:34:13.753Z,0
2017-05-18T01:35:13.450Z,0
2017-05-18T01:36:13.742Z,0
2017-05-18T01:37:13.733Z,0
2017-05-18T01:38:13.738Z,0
2017-05-18T01:39:13.725Z,0
2017-05-18T01:40:13.722Z,0
2017-05-18T01:41:13.717Z,0
2017-05-18T01:42:13.719Z,0
2017-05-18T01:43:13.718Z,0
2017-05-18T01:44:13.717Z,0
2017-05-18T01:45:13.701Z,0
2017-05-18T01:46:13.700Z,0
2017-05-18T01:47:13.686Z,0
2017-05-18T01:48:13.684Z,0
2017-05-18T01:49:13.678Z,0
2017-05-18T01:50:13.368Z,0
2017-05-18T01:51:13.671Z,0
2017-05-18T01:52:13.055Z,0
2017-05-18T01:53:13.662Z,0
2017-05-18T01:54:13.359Z,0
2017-05-18T01:55:13.655Z,0
2017-05-18T01:56:13.650Z,0
2017-05-18T01:57:13.678Z,0
2017-05-18T01:58:13.330Z,0
2017-05-18T01:59:13.324Z,0
2017-05-18T02:00:13.625Z,0
2017-05-18T02:01:13.372Z,0
2017-05-18T02:02:13.322Z,0
2017-05-18T02:03:13.310Z,0
2017-05-18T02:04:13.605Z,0
2017-05-18T02:05:13.602Z,0
2017-05-18T02:06:13.603Z,0
2017-05-18T02:07:13.637Z,0
2017-05-18T02:08:13.583Z,0
2017-05-18T02:09:13.581Z,0
2017-05-18T02:10:13.572Z,0
2017-05-18T02:11:13.572Z,0
2017-05-18T02:12:13.564Z,0
2017-05-18T02:13:13.615Z,0
2017-05-18T02:14:13.552Z,0
2017-05-18T02:15:13.547Z,0
2017-05-18T02:16:13.545Z,0
2017-05-18T02:17:13.543Z,0
2017-05-18T02:18:13.233Z,0
2017-05-18T02:19:13.529Z,0
2017-05-18T02:20:13.219Z,0
2017-05-18T02:21:13.516Z,0
2017-05-18T02:22:13.517Z,0
2017-05-18T02:23:13.209Z,0
2017-05-18T02:24:13.199Z,0
2017-05-18T02:25:13.195Z,0
2017-05-18T02:26:13.494Z,0
2017-05-18T02:27:13.181Z,0
2017-05-18T02:28:13.182Z,0
2017-05-18T02:29:13.481Z,0
2017-05-18T02:30:13.476Z,0
2017-05-18T02:31:13.474Z,0
2017-05-18T02:32:13.163Z,0
2017-05-18T02:33:13.458Z,0
2017-05-18T02:34:13.147Z,0
2017-05-18T02:35:12.845Z,0
2017-05-18T02:36:13.447Z,0
2017-05-18T02:37:13.436Z,0
2017-05-18T02:38:13.435Z,0
2017-05-18T02:39:13.425Z,0
2017-05-18T02:40:13.121Z,0
2017-05-18T02:41:13.419Z,0
2017-05-18T02:42:13.411Z,0
2017-05-18T02:43:12.805Z,0
2017-05-18T02:44:12.793Z,0
2017-05-18T02:45:13.091Z,0
2017-05-18T02:46:13.395Z,0
2017-05-18T02:47:13.088Z,0
2017-05-18T02:48:13.088Z,0
2017-05-18T02:49:13.382Z,0
2017-05-18T02:50:13.371Z,0
2017-05-18T02:51:13.365Z,0
2017-05-18T02:52:13.061Z,0
2017-05-18T02:53:13.358Z,5
2017-05-18T02:54:13.047Z,5
2017-05-18T02:55:13.042Z,5
2017-05-18T02:56:13.338Z,5
2017-05-18T02:57:13.334Z,5
2017-05-18T02:58:13.326Z,5
2017-05-18T02:59:13.327Z,5
2017-05-18T03:00:13.016Z,10
2017-05-18T03:01:13.056Z,10
2017-05-18T03:02:13.311Z,10
2017-05-18T03:03:13.299Z,10
2017-05-18T03:04:13.295Z,10
2017-05-18T03:05:12.986Z,10
2017-05-18T03:06:13.292Z,15
2017-05-18T03:07:12.979Z,15
2017-05-18T03:08:12.967Z,15
2017-05-18T03:09:13.270Z,15
2017-05-18T03:10:13.264Z,20
2017-05-18T03:11:13.256Z,20
2017-05-18T03:12:13.251Z,20
2017-05-18T03:13:12.952Z,20
2017-05-18T03:14:12.941Z,25
2017-05-18T03:15:12.633Z,25
2017-05-18T03:16:12.934Z,25
2017-05-18T03:17:12.922Z,30
2017-05-18T03:18:12.918Z,30
2017-05-18T03:19:12.923Z,30
2017-05-18T03:20:12.912Z,35
2017-05-18T03:21:12.904Z,35
2017-05-18T03:22:12.898Z,35
2017-05-18T03:23:12.890Z,40
2017-05-18T03:24:13.187Z,40
2017-05-18T03:25:13.181Z,40
2017-05-18T03:26:12.872Z,45
2017-05-18T03:27:13.430Z,45
2017-05-18T03:28:13.171Z,50
2017-05-18T03:29:12.859Z,50
2017-05-18T03:30:12.852Z,50
2017-05-18T03:31:12.847Z,55
2017-05-18T03:32:13.146Z,55
2017-05-18T03:33:13.141Z,60
2017-05-18T03:34:12.831Z,60
2017-05-18T03:35:13.137Z,65
2017-05-18T03:36:13.138Z,65
2017-05-18T03:37:12.820Z,70
2017-05-18T03:38:12.506Z,70
2017-05-18T03:39:13.106Z,75
2017-05-18T03:40:12.801Z,80
2017-05-18T03:41:13.105Z,85
2017-05-18T03:42:13.093Z,90
2017-05-18T03:43:13.090Z,100
2017-05-18T03:44:13.082Z,110
2017-05-18T03:45:12.774Z,120
2017-05-18T03:46:12.470Z,130
2017-05-18T03:47:12.763Z,130
2017-05-18T03:48:13.066Z,130
2017-05-18T03:49:12.757Z,140
2017-05-18T03:50:12.446Z,145
2017-05-18T03:51:12.745Z,150
2017-05-18T03:52:12.439Z,155
2017-05-18T03:53:13.043Z,160
2017-05-18T03:54:13.093Z,165
2017-05-18T03:55:12.731Z,170
2017-05-18T03:56:13.037Z,180
2017-05-18T03:57:13.029Z,180
2017-05-18T03:58:12.719Z,180
2017-05-18T03:59:12.717Z,190
2017-05-18T04:00:12.716Z,195
2017-05-18T04:01:13.036Z,200
2017-05-18T04:02:13.010Z,205
2017-05-18T04:03:12.705Z,205
2017-05-18T04:04:12.703Z,215
2017-05-18T04:05:12.713Z,225
2017-05-18T04:06:12.704Z,235
2017-05-18T04:07:13.003Z,240
2017-05-18T04:08:12.695Z,245
2017-05-18T04:09:12.697Z,250
2017-05-18T04:10:12.995Z,250
2017-05-18T04:11:12.400Z,260
2017-05-18T04:12:12.384Z,260
2017-05-18T04:13:12.391Z,270
2017-05-18T04:14:12.388Z,280
2017-05-18T04:15:12.683Z,290
2017-05-18T04:16:12.994Z,295
2017-05-18T04:17:12.998Z,300
2017-05-18T04:18:12.383Z,310
2017-05-18T04:19:12.697Z,310
2017-05-18T04:20:12.993Z,315
2017-05-18T04:21:12.692Z,320
2017-05-18T04:22:13.005Z,330
2017-05-18T04:23:12.995Z,335
2017-05-18T04:24:13.022Z,345
2017-05-18T04:25:12.751Z,355
2017-05-18T04:26:13.007Z,360
2017-05-18T04:27:12.715Z,370
2017-05-18T04:28:13.009Z,375
2017-05-18T04:29:12.772Z,390
2017-05-18T04:30:12.407Z,390
2017-05-18T04:31:13.019Z,395
2017-05-18T04:32:12.720Z,380
2017-05-18T04:33:13.034Z,370
2017-05-18T04:34:13.033Z,380
2017-05-18T04:35:12.740Z,390
2017-05-18T04:36:12.751Z,395
2017-05-18T04:37:12.441Z,400
2017-05-18T04:38:13.049Z,410
2017-05-18T04:39:13.057Z,410
2017-05-18T04:40:12.152Z,410
2017-05-18T04:41:13.067Z,410
2017-05-18T04:42:13.077Z,415
2017-05-18T04:43:12.476Z,430
2017-05-18T04:44:13.090Z,440
2017-05-18T04:45:13.101Z,445
2017-05-18T04:46:13.105Z,450
2017-05-18T04:47:13.102Z,460
2017-05-18T04:48:13.110Z,465
2017-05-18T04:49:13.120Z,475
2017-05-18T04:50:13.123Z,495
2017-05-18T04:51:12.529Z,515
2017-05-18T04:52:12.535Z,530
2017-05-18T04:53:12.844Z,525
2017-05-18T04:54:12.247Z,525
2017-05-18T04:55:12.856Z,530
2017-05-18T04:56:12.870Z,540
2017-05-18T04:57:12.876Z,540
2017-05-18T04:58:12.882Z,545
2017-05-18T04:59:13.199Z,565
2017-05-18T05:00:12.903Z,580
2017-05-18T05:01:13.212Z,590
2017-05-18T05:02:12.914Z,605
2017-05-18T05:03:12.926Z,605
2017-05-18T05:04:13.242Z,610
2017-05-18T05:05:13.251Z,615
2017-05-18T05:06:13.258Z,625
2017-05-18T05:07:13.261Z,630
2017-05-18T05:08:12.974Z,635
2017-05-18T05:09:13.279Z,635
2017-05-18T05:10:12.992Z,635
2017-05-18T05:11:13.011Z,640
2017-05-18T05:12:13.313Z,645
2017-05-18T05:13:13.316Z,640
2017-05-18T05:14:13.327Z,640
2017-05-18T05:15:13.343Z,640
2017-05-18T05:16:13.352Z,640
2017-05-18T05:17:13.373Z,650
2017-05-18T05:18:12.765Z,650
2017-05-18T05:19:13.374Z,665
2017-05-18T05:20:13.389Z,685
2017-05-18T05:21:13.397Z,705
2017-05-18T05:22:13.405Z,720
2017-05-18T05:23:13.416Z,740
2017-05-18T05:24:12.894Z,755
2017-05-18T05:25:13.440Z,770
2017-05-18T05:26:13.448Z,775
2017-05-18T05:27:13.457Z,790
2017-05-18T05:28:13.169Z,785
2017-05-18T05:29:13.552Z,785
2017-05-18T05:30:13.198Z,795
2017-05-18T05:31:13.501Z,805
2017-05-18T05:32:12.912Z,820
2017-05-18T05:33:13.223Z,830
2017-05-18T05:34:12.930Z,835
2017-05-18T05:35:13.296Z,835
2017-05-18T05:36:13.579Z,830
2017-05-18T05:37:13.274Z,830
2017-05-18T05:38:13.275Z,825
2017-05-18T05:39:13.293Z,825
2017-05-18T05:40:13.298Z,835
2017-05-18T05:41:13.617Z,840
2017-05-18T05:42:13.635Z,865
2017-05-18T05:43:13.341Z,890
2017-05-18T05:44:13.667Z,930
2017-05-18T05:45:13.363Z,970
2017-05-18T05:46:13.681Z,995
2017-05-18T05:47:13.085Z,1005
2017-05-18T05:48:13.699Z,1005
2017-05-18T05:49:13.718Z,1000
2017-05-18T05:50:13.420Z,990
2017-05-18T05:51:13.743Z,975
2017-05-18T05:52:13.753Z,960
2017-05-18T05:53:13.770Z,965
2017-05-18T05:54:13.476Z,965
2017-05-18T05:55:13.493Z,960
2017-05-18T05:56:13.498Z,965
2017-05-18T05:57:13.826Z,975
2017-05-18T05:58:13.531Z,1230
2017-05-18T05:59:13.539Z,1250
2017-05-18T06:00:13.554Z,1275
2017-05-18T06:01:13.870Z,1280
2017-05-18T06:02:13.892Z,1300
2017-05-18T06:03:13.593Z,1315
2017-05-18T06:04:13.298Z,1330
2017-05-18T06:05:13.619Z,1350
2017-05-18T06:06:13.936Z,1345
2017-05-18T06:07:13.947Z,1345
2017-05-18T06:08:13.353Z,1340
2017-05-18T06:09:13.673Z,1350
2017-05-18T06:10:13.682Z,1345
2017-05-18T06:11:14.007Z,1365
2017-05-18T06:12:14.029Z,1375
2017-05-18T06:13:14.037Z,1405
2017-05-18T06:14:14.048Z,1435
2017-05-18T06:15:14.059Z,1465
2017-05-18T06:16:13.774Z,1485
2017-05-18T06:17:14.087Z,1495
2017-05-18T06:18:14.108Z,1510
2017-05-18T06:19:13.827Z,1525
2017-05-18T06:20:13.833Z,1525
2017-05-18T06:21:14.154Z,1545
2017-05-18T06:22:13.254Z,1560
2017-05-18T06:23:13.874Z,1580
2017-05-18T06:24:13.904Z,1595
2017-05-18T06:25:13.607Z,1600
2017-05-18T06:26:13.929Z,1600
2017-05-18T06:27:13.939Z,1615
2017-05-18T06:28:13.956Z,1635
2017-05-18T06:29:14.276Z,1635
2017-05-18T06:30:13.988Z,1640
2017-05-18T06:31:14.003Z,1645
2017-05-18T06:32:13.715Z,1640
2017-05-18T06:33:14.038Z,1635
2017-05-18T06:34:14.360Z,1640
2017-05-18T06:35:14.374Z,1660
2017-05-18T06:36:14.084Z,1645
2017-05-18T06:37:14.411Z,1670
2017-05-18T06:38:14.419Z,1685
2017-05-18T06:39:14.449Z,1695
2017-05-18T06:40:14.157Z,1715
2017-05-18T06:41:14.475Z,1750
2017-05-18T06:42:14.188Z,1785
2017-05-18T06:43:14.209Z,1795
2017-05-18T06:44:14.228Z,1795
2017-05-18T06:45:13.643Z,1800
2017-05-18T06:46:13.953Z,1825
2017-05-18T06:47:14.580Z,1820
2017-05-18T06:48:14.297Z,1820
2017-05-18T06:49:14.618Z,1830
2017-05-18T06:50:14.628Z,1855
2017-05-18T06:51:14.657Z,1845
2017-05-18T06:52:14.363Z,1865
2017-05-18T06:53:14.687Z,1905
2017-05-18T06:54:14.403Z,1920
2017-05-18T06:55:14.720Z,1945
2017-05-18T06:56:14.136Z,1940
2017-05-18T06:57:14.811Z,1945
2017-05-18T06:58:14.778Z,1960
2017-05-18T06:59:14.491Z,1960
2017-05-18T07:00:14.817Z,1970
2017-05-18T07:01:14.536Z,1975
2017-05-18T07:02:14.612Z,2000
2017-05-18T07:03:14.866Z,2015
2017-05-18T07:04:14.938Z,2030
2017-05-18T07:05:14.600Z,2035
2017-05-18T07:06:14.634Z,2050
2017-05-18T07:07:14.936Z,2080
2017-05-18T07:08:14.963Z,2065
2017-05-18T07:09:14.977Z,2110
2017-05-18T07:10:14.698Z,2135
2017-05-18T07:11:15.015Z,2145
2017-05-18T07:12:14.729Z,2180
2017-05-18T07:13:15.051Z,2165
2017-05-18T07:14:14.766Z,2125
2017-05-18T07:15:14.792Z,2075
2017-05-18T07:16:15.108Z,2020
2017-05-18T07:17:15.127Z,2015
2017-05-18T07:18:15.147Z,2025
2017-05-18T07:19:14.560Z,2055
2017-05-18T07:20:15.185Z,2060
2017-05-18T07:21:14.897Z,2075
2017-05-18T07:22:14.617Z,2115
2017-05-18T07:23:15.240Z,2140
2017-05-18T07:24:14.659Z,2130
2017-05-18T07:25:15.025Z,2160
2017-05-18T07:26:14.993Z,2150
2017-05-18T07:27:15.016Z,2150
2017-05-18T07:28:15.027Z,2150
2017-05-18T07:29:15.061Z,2145
2017-05-18T07:30:15.063Z,2165
2017-05-18T07:31:15.393Z,2220
2017-05-18T07:32:15.105Z,2220
2017-05-18T07:33:15.427Z,2165
2017-05-18T07:34:15.146Z,2105
2017-05-18T07:35:14.857Z,1995
2017-05-18T07:36:14.576Z,1880
2017-05-18T07:37:15.504Z,1900
2017-05-18T07:38:15.218Z,1915
2017-05-18T07:39:15.231Z,1925
2017-05-18T07:40:15.253Z,1940
2017-05-18T07:41:15.273Z,1950
2017-05-18T07:42:15.593Z,2000
2017-05-18T07:43:15.616Z,2035
2017-05-18T07:44:14.731Z,2070
2017-05-18T07:45:15.645Z,2135
2017-05-18T07:46:15.666Z,2160
2017-05-18T07:47:15.680Z,2215
2017-05-18T07:48:15.407Z,2250
2017-05-18T07:49:15.418Z,2295
2017-05-18T07:50:15.434Z,2325
2017-05-18T07:51:15.454Z,2335
2017-05-18T07:52:15.781Z,2365
2017-05-18T07:53:15.550Z,2275
2017-05-18T07:54:15.817Z,2220
2017-05-18T07:55:15.527Z,2315
2017-05-18T07:56:15.854Z,2655
2017-05-18T07:57:15.868Z,3000
2017-05-18T07:58:15.893Z,3075
2017-05-18T07:59:15.912Z,3120
2017-05-18T08:00:15.628Z,3095
2017-05-18T08:01:15.645Z,3125
2017-05-18T08:02:15.370Z,3080
2017-05-18T08:03:15.403Z,3040
2017-05-18T08:04:15.736Z,3020
2017-05-18T08:05:16.066Z,3070
2017-05-18T08:06:15.445Z,3025
2017-05-18T08:07:16.060Z,2965
2017-05-18T08:08:16.083Z,2850
2017-05-18T08:09:15.503Z,2845
2017-05-18T08:10:16.130Z,2800
2017-05-18T08:11:16.141Z,2730
2017-05-18T08:12:16.157Z,2530
2017-05-18T08:13:15.879Z,2130
2017-05-18T08:14:16.202Z,1940
2017-05-18T08:15:16.221Z,1910
2017-05-18T08:16:15.937Z,2010
2017-05-18T08:17:16.258Z,2040
2017-05-18T08:18:16.281Z,2035
2017-05-18T08:19:16.309Z,2070
2017-05-18T08:20:16.023Z,2080
2017-05-18T08:21:16.340Z,2070
2017-05-18T08:22:16.383Z,2070
2017-05-18T08:23:16.077Z,2060
2017-05-18T08:24:16.396Z,2065
2017-05-18T08:25:16.411Z,2075
2017-05-18T08:26:16.433Z,2075
2017-05-18T08:27:15.841Z,2080
2017-05-18T08:28:16.469Z,2110
2017-05-18T08:29:15.874Z,2135
2017-05-18T08:30:15.894Z,2145
2017-05-18T08:31:15.914Z,2135
2017-05-18T08:32:16.233Z,2135
2017-05-18T08:33:16.560Z,2130
2017-05-18T08:34:16.574Z,2130
2017-05-18T08:35:16.289Z,2110
2017-05-18T08:36:16.306Z,2125
2017-05-18T08:37:16.642Z,2125
2017-05-18T08:38:16.068Z,2150
2017-05-18T08:39:16.419Z,2145
2017-05-18T08:40:16.675Z,2170
2017-05-18T08:41:16.085Z,2160
2017-05-18T08:42:16.403Z,2170
2017-05-18T08:43:16.728Z,2160
2017-05-18T08:44:16.443Z,1765
2017-05-18T08:45:16.755Z,830
2017-05-18T08:46:16.476Z,320
2017-05-18T08:47:16.486Z,305
2017-05-18T08:48:16.505Z,300
2017-05-18T08:49:16.828Z,300
2017-05-18T08:50:16.831Z,295
2017-05-18T08:51:16.551Z,295
2017-05-18T08:52:16.617Z,295
2017-05-18T08:53:16.876Z,295
2017-05-18T08:54:16.281Z,295
2017-05-18T08:55:16.602Z,295
2017-05-18T08:56:16.609Z,295
2017-05-18T08:57:16.924Z,295
2017-05-18T08:58:16.933Z,295
2017-05-18T08:59:16.941Z,295
2017-05-18T09:00:16.649Z,295
2017-05-18T09:01:16.362Z,295
2017-05-18T09:02:16.364Z,290
2017-05-18T09:03:16.685Z,290
2017-05-18T09:04:16.387Z,290
2017-05-18T09:05:17.007Z,290
2017-05-18T09:06:16.405Z,285
2017-05-18T09:07:16.717Z,285
2017-05-18T09:08:17.031Z,290
2017-05-18T09:09:16.735Z,290
2017-05-18T09:10:16.740Z,290
2017-05-18T09:11:17.050Z,290
2017-05-18T09:12:16.753Z,290
2017-05-18T09:13:16.770Z,290
2017-05-18T09:14:36.280Z,285
2017-05-18T09:15:17.059Z,285
2017-05-18T09:16:17.043Z,285
2017-05-18T09:17:17.056Z,285
2017-05-18T09:18:17.066Z,280
2017-05-18T09:19:16.768Z,280
2017-05-18T09:20:16.473Z,280
2017-05-18T09:21:48.945Z,280
2017-05-18T09:22:17.135Z,280
2017-05-18T09:23:17.156Z,280
2017-05-18T09:24:16.585Z,275
2017-05-18T09:25:16.561Z,275
2017-05-18T09:26:17.217Z,275
2017-05-18T09:27:17.154Z,280
2017-05-18T09:28:16.896Z,275
2017-05-18T09:29:17.277Z,275
2017-05-18T09:30:17.212Z,275
2017-05-18T09:31:16.285Z,275
2017-05-18T09:32:16.302Z,275
2017-05-18T09:33:17.208Z,275
2017-05-18T09:34:16.599Z,275
2017-05-18T09:35:16.939Z,270
2017-05-18T09:36:17.229Z,265
2017-05-18T09:37:17.225Z,265
2017-05-18T09:38:16.945Z,265
2017-05-18T09:39:17.248Z,265
2017-05-18T09:40:17.257Z,260
2017-05-18T09:41:17.263Z,260
2017-05-18T09:42:17.269Z,260
2017-05-18T09:43:16.672Z,260
2017-05-18T09:44:17.272Z,270
2017-05-18T09:45:16.947Z,265
2017-05-18T09:46:16.986Z,265
2017-05-18T09:47:16.968Z,265
2017-05-18T09:48:17.304Z,265
2017-05-18T09:49:16.980Z,265
2017-05-18T09:50:16.998Z,265
2017-05-18T09:51:16.970Z,265
2017-05-18T09:52:17.301Z,265
2017-05-18T09:53:17.321Z,265
2017-05-18T09:54:17.005Z,265
2017-05-18T09:55:17.023Z,265
2017-05-18T09:56:17.011Z,265
2017-05-18T09:57:17.014Z,265
2017-05-18T09:58:16.724Z,265
2017-05-18T09:59:17.014Z,270
2017-05-18T10:00:16.417Z,270
2017-05-18T10:01:17.308Z,270
2017-05-18T10:02:17.359Z,270
2017-05-18T10:03:17.051Z,270
2017-05-18T10:04:17.375Z,270
2017-05-18T10:05:16.751Z,270
2017-05-18T10:06:17.070Z,270
2017-05-18T10:07:17.040Z,270
2017-05-18T10:08:17.368Z,265
2017-05-18T10:09:17.069Z,265
2017-05-18T10:10:17.599Z,265
2017-05-18T10:11:17.085Z,265
2017-05-18T10:12:17.402Z,265
2017-05-18T10:13:17.149Z,265
2017-05-18T10:14:17.111Z,265
2017-05-18T10:15:17.446Z,265
2017-05-18T10:16:17.418Z,270
2017-05-18T10:17:17.090Z,260
2017-05-18T10:18:17.431Z,260
2017-05-18T10:19:17.418Z,265
2017-05-18T10:20:17.437Z,265
2017-05-18T10:21:16.812Z,265
2017-05-18T10:22:17.450Z,265
2017-05-18T10:23:16.524Z,265
2017-05-18T10:24:17.161Z,260
2017-05-18T10:25:17.152Z,260
2017-05-18T10:26:17.154Z,260
2017-05-18T10:27:17.783Z,265
2017-05-18T10:28:17.147Z,260
2017-05-18T10:29:17.472Z,260
2017-05-18T10:30:16.571Z,260
2017-05-18T10:31:17.156Z,260
2017-05-18T10:32:17.192Z,260
2017-05-18T10:33:17.160Z,260
2017-05-18T10:34:17.204Z,260
2017-05-18T10:35:17.176Z,265
2017-05-18T10:36:17.421Z,260
2017-05-18T10:37:17.513Z,260
2017-05-18T10:38:16.890Z,260
2017-05-18T10:39:17.495Z,260
2017-05-18T10:40:16.902Z,265
2017-05-18T10:41:17.521Z,260
2017-05-18T10:42:17.239Z,260
2017-05-18T10:43:17.559Z,260
2017-05-18T10:44:17.235Z,260
2017-05-18T10:45:17.226Z,260
2017-05-18T10:46:17.243Z,260
2017-05-18T10:47:17.254Z,260
2017-05-18T10:48:17.239Z,260
2017-05-18T10:49:17.269Z,260
2017-05-18T10:50:17.566Z,260
2017-05-18T10:51:17.541Z,260
2017-05-18T10:52:17.590Z,260
2017-05-18T10:53:17.589Z,260
2017-05-18T10:54:17.602Z,260
2017-05-18T10:55:16.974Z,260
2017-05-18T10:56:17.296Z,260
2017-05-18T10:57:16.989Z,260
2017-05-18T10:58:17.023Z,260
2017-05-18T10:59:17.633Z,260
2017-05-18T11:00:17.973Z,260
2017-05-18T11:01:17.321Z,265
2017-05-18T11:02:17.307Z,265
2017-05-18T11:03:17.340Z,265
2017-05-18T11:04:17.333Z,260
2017-05-18T11:05:17.350Z,265
2017-05-18T11:06:16.768Z,265
2017-05-18T11:07:17.668Z,260
2017-05-18T11:08:17.658Z,260
2017-05-18T11:09:17.356Z,260
2017-05-18T11:10:17.687Z,260
2017-05-18T11:11:17.379Z,260
2017-05-18T11:12:17.383Z,260
2017-05-18T11:13:17.068Z,260
2017-05-18T11:14:17.359Z,260
2017-05-18T11:15:17.399Z,260
2017-05-18T11:16:17.398Z,255
2017-05-18T11:17:17.417Z,255
2017-05-18T11:18:17.691Z,255
2017-05-18T11:19:17.790Z,255
2017-05-18T11:20:17.701Z,255
2017-05-18T11:21:17.123Z,255
2017-05-18T11:22:17.109Z,255
2017-05-18T11:23:17.454Z,255
2017-05-18T11:24:17.736Z,255
2017-05-18T11:25:17.744Z,255
2017-05-18T11:26:17.138Z,255
2017-05-18T11:27:17.468Z,250
2017-05-18T11:28:17.768Z,250
2017-05-18T11:29:17.774Z,250
2017-05-18T11:30:17.763Z,250
2017-05-18T11:31:17.781Z,250
2017-05-18T11:32:17.466Z,250
2017-05-18T11:33:17.495Z,250
2017-05-18T11:34:17.810Z,250
2017-05-18T11:35:17.805Z,255
2017-05-18T11:36:17.494Z,255
2017-05-18T11:37:17.495Z,260
2017-05-18T11:38:17.561Z,265
2017-05-18T11:39:17.794Z,265
2017-05-18T11:40:17.521Z,270
2017-05-18T11:41:17.886Z,270
2017-05-18T11:42:17.841Z,270
2017-05-18T11:43:17.847Z,265
2017-05-18T11:44:17.851Z,260
2017-05-18T11:45:17.545Z,255
2017-05-18T11:46:17.530Z,250
2017-05-18T11:47:17.539Z,250
2017-05-18T11:48:17.866Z,255
2017-05-18T11:49:17.569Z,250
2017-05-18T11:50:17.271Z,250
2017-05-18T11:51:17.563Z,250
2017-05-18T11:52:17.590Z,245
2017-05-18T11:53:17.888Z,245
2017-05-18T11:54:17.888Z,245
2017-05-18T11:55:17.912Z,240
2017-05-18T11:56:17.879Z,240
2017-05-18T11:57:17.914Z,240
2017-05-18T11:58:17.313Z,240
2017-05-18T11:59:17.945Z,240
2017-05-18T12:00:17.936Z,240
2017-05-18T12:01:17.336Z,240
2017-05-18T12:02:17.635Z,240
2017-05-18T12:03:17.947Z,240
2017-05-18T12:04:17.952Z,240
2017-05-18T12:05:17.347Z,240
2017-05-18T12:06:17.636Z,240
2017-05-18T12:07:17.373Z,240
2017-05-18T12:08:17.665Z,240
2017-05-18T12:09:17.383Z,240
2017-05-18T12:10:18.343Z,240
2017-05-18T12:11:17.704Z,240
2017-05-18T12:12:17.679Z,240
2017-05-18T12:13:18.371Z,240
2017-05-18T12:14:17.703Z,235
2017-05-18T12:15:17.475Z,235
2017-05-18T12:16:17.728Z,235
2017-05-18T12:17:18.024Z,235
2017-05-18T12:18:18.003Z,235
2017-05-18T12:19:18.022Z,235
2017-05-18T12:20:18.032Z,240
2017-05-18T12:21:18.036Z,235
2017-05-18T12:22:17.759Z,235
2017-05-18T12:23:17.441Z,235
2017-05-18T12:24:18.060Z,235
2017-05-18T12:25:17.805Z,235
2017-05-18T12:26:17.779Z,235
2017-05-18T12:27:17.768Z,230
2017-05-18T12:28:18.116Z,230
2017-05-18T12:29:17.784Z,230
2017-05-18T12:30:17.803Z,225
2017-05-18T12:31:17.783Z,225
2017-05-18T12:32:17.815Z,225
2017-05-18T12:33:18.119Z,220
2017-05-18T12:34:18.113Z,220
2017-05-18T12:35:18.098Z,220
2017-05-18T12:36:18.139Z,215
2017-05-18T12:37:17.520Z,220
2017-05-18T12:38:17.867Z,215
2017-05-18T12:39:17.516Z,220
2017-05-18T12:40:17.835Z,215
2017-05-18T12:41:18.144Z,215
2017-05-18T12:42:17.859Z,215
2017-05-18T12:43:18.165Z,215
2017-05-18T12:44:18.184Z,215
2017-05-18T12:45:18.175Z,215
2017-05-18T12:46:18.193Z,215
2017-05-18T12:47:17.870Z,215
2017-05-18T12:48:18.185Z,215
2017-05-18T12:49:17.901Z,215
2017-05-18T12:50:17.911Z,215
2017-05-18T12:51:18.212Z,215
2017-05-18T12:52:18.201Z,215
2017-05-18T12:53:18.231Z,215
2017-05-18T12:54:18.210Z,215
2017-05-18T12:55:18.237Z,215
2017-05-18T12:56:18.229Z,215
2017-05-18T12:57:18.245Z,215
2017-05-18T12:58:18.257Z,215
2017-05-18T12:59:18.257Z,215
2017-05-18T13:00:18.280Z,215
2017-05-18T13:01:17.972Z,215
2017-05-18T13:02:17.719Z,215
2017-05-18T13:03:18.194Z,215
2017-05-18T13:04:18.323Z,215
2017-05-18T13:05:17.970Z,220
2017-05-18T13:06:17.997Z,220
2017-05-18T13:07:18.000Z,220
2017-05-18T13:08:17.381Z,220
2017-05-18T13:09:17.703Z,220
2017-05-18T13:10:17.697Z,215
2017-05-18T13:11:18.069Z,215
2017-05-18T13:12:18.020Z,215
2017-05-18T13:13:18.037Z,220
2017-05-18T13:14:18.019Z,215
2017-05-18T13:15:18.046Z,215
2017-05-18T13:16:18.340Z,215
2017-05-18T13:17:18.343Z,215
2017-05-18T13:18:18.341Z,215
2017-05-18T13:19:18.373Z,215
2017-05-18T13:20:17.448Z,210
2017-05-18T13:21:18.076Z,210
2017-05-18T13:22:18.060Z,210
2017-05-18T13:23:18.085Z,210
2017-05-18T13:24:18.080Z,210
2017-05-18T13:25:17.781Z,210
2017-05-18T13:26:17.469Z,210
2017-05-18T13:27:18.110Z,205
2017-05-18T13:28:18.416Z,205
2017-05-18T13:29:18.427Z,205
2017-05-18T13:30:18.462Z,205
2017-05-18T13:31:18.137Z,205
2017-05-18T13:32:18.099Z,205
2017-05-18T13:33:18.446Z,205
2017-05-18T13:34:18.116Z,205
2017-05-18T13:35:18.466Z,210
2017-05-18T13:36:17.838Z,205
2017-05-18T13:37:18.148Z,205
2017-05-18T13:38:18.152Z,205
2017-05-18T13:39:18.461Z,205
2017-05-18T13:40:18.183Z,205
2017-05-18T13:41:17.564Z,205
2017-05-18T13:42:18.199Z,205
2017-05-18T13:43:18.495Z,210
2017-05-18T13:44:18.193Z,205
2017-05-18T13:45:18.193Z,205
2017-05-18T13:46:18.510Z,200
2017-05-18T13:47:18.200Z,200
2017-05-18T13:48:18.215Z,200
2017-05-18T13:49:17.908Z,200
2017-05-18T13:50:18.229Z,200
2017-05-18T13:51:18.256Z,200
2017-05-18T13:52:18.555Z,200
2017-05-18T13:53:18.243Z,195
2017-05-18T13:54:17.934Z,195